Main page
METAR-TAF:

METAR-TAF

Airports :

Vaasa Airport

Vaasa, Finland

latitude: 63-03N, longitude: 021-46E, elevation: 4 m

Current weather observation

The report was made 35 minutes ago, at 15:50 UTC
Wind 11 kt from the West/Southwest
Temperature 17°C
Humidity 55%
Pressure 1011 hPa
Visibility 10 km or more
no clouds below 1500 m and no cumulonimbus

METAR: EFVA 211550Z AUTO 24011KT CAVOK 17/08 Q1011

Time: 19:25 (16:25 UTC)

Forecast

The report was made 1 hour and 52 minutes ago, at 14:33 UTC
Forecast valid from 21 at 15 UTC to 22 at 15 UTC
Wind 10 kt from the West/Northwest
Visibility 10 km or more
no clouds below 1500 m and no cumulonimbus

TAF: EFVA 211433Z 2115/2215 29010KT CAVOK

Weather observations and forecasts of more than 4000 airports (METAR and TAF reports).

The available stations are represented by yellow and red dots on the map.

Hover mouse over dot to see the name of the station.

Then click to see weather observations and forecasts.

To change the map : click on the green buttons with a black cross to zoom in, on the green button with a dash to zoom out, or on the green arrows for adjacent maps.


METAR-TAF: